createdAt,value
2022-08-23T00:08:36.609Z,2.45
2022-08-23T00:19:00.062Z,2.42
2022-08-23T00:29:07.175Z,2.45
2022-08-23T00:39:09.525Z,2.08
2022-08-23T00:49:13.565Z,2.25
2022-08-23T00:59:42.310Z,2.30
2022-08-23T01:09:54.204Z,2.55
2022-08-23T01:20:07.319Z,2.15
2022-08-23T01:30:25.015Z,2.08
2022-08-23T01:40:35.620Z,2.80
2022-08-23T01:50:39.833Z,2.33
2022-08-23T02:00:44.717Z,2.20
2022-08-23T02:10:53.855Z,2.58
2022-08-23T02:21:02.457Z,2.15
2022-08-23T02:31:12.348Z,2.60
2022-08-23T02:41:23.140Z,2.35
2022-08-23T02:51:34.005Z,2.28
2022-08-23T03:01:44.415Z,2.03
2022-08-23T03:11:55.028Z,2.05
2022-08-23T03:22:02.129Z,2.70
2022-08-23T03:32:09.812Z,2.12
2022-08-23T03:42:13.759Z,2.30
2022-08-23T03:52:16.092Z,2.55
2022-08-23T04:02:18.749Z,2.33
2022-08-23T04:12:22.367Z,2.53
2022-08-23T04:22:25.162Z,2.33
2022-08-23T04:32:28.428Z,2.92
2022-08-23T04:42:31.372Z,2.60
2022-08-23T04:52:34.014Z,2.22
2022-08-23T05:02:37.146Z,2.62
2022-08-23T05:12:40.165Z,2.87
2022-08-23T05:22:43.426Z,2.90
2022-08-23T05:32:45.913Z,2.15
2022-08-23T05:42:49.251Z,2.45
2022-08-23T05:52:54.942Z,2.80
2022-08-23T06:03:00.648Z,2.42
2022-08-23T06:13:05.073Z,2.20
2022-08-23T06:23:12.169Z,2.65
2022-08-23T06:33:19.561Z,2.55
2022-08-23T06:43:43.403Z,2.80
2022-08-23T06:53:47.202Z,2.53
2022-08-23T07:04:01.720Z,2.45
2022-08-23T07:14:15.718Z,2.30
2022-08-23T07:24:39.878Z,2.50
2022-08-23T07:34:50.234Z,2.50
2022-08-23T07:45:36.878Z,2.80
2022-08-23T07:55:40.412Z,2.67
2022-08-23T08:05:43.753Z,2.70
2022-08-23T08:15:47.648Z,3.22
2022-08-23T08:26:02.042Z,3.10
2022-08-23T08:36:07.458Z,2.65
2022-08-23T08:46:29.539Z,2.83
2022-08-23T08:56:48.686Z,3.00
2022-08-23T09:07:16.645Z,3.20
2022-08-23T09:17:34.735Z,3.12
2022-08-23T09:27:42.629Z,2.97
2022-08-23T09:38:53.693Z,3.33
2022-08-23T09:49:02.262Z,3.25
2022-08-23T09:59:59.422Z,2.33
2022-08-23T10:10:25.087Z,2.05
2022-08-23T10:21:07.169Z,2.47
2022-08-23T10:31:32.225Z,2.00
2022-08-23T10:41:41.747Z,2.10
2022-08-23T10:51:51.908Z,2.20
2022-08-23T11:02:10.351Z,2.05
2022-08-23T11:12:28.006Z,1.98
2022-08-23T11:22:34.486Z,2.12
2022-08-23T11:43:07.468Z,2.10
2022-08-23T11:53:47.222Z,2.55
2022-08-23T12:04:19.816Z,2.15
2022-08-23T12:25:09.071Z,2.10
2022-08-23T12:35:27.686Z,2.10
2022-08-23T12:46:31.196Z,2.00
2022-08-23T12:57:02.081Z,2.03
2022-08-23T13:19:13.688Z,1.75
2022-08-23T13:29:21.029Z,1.00
2022-08-23T13:39:37.403Z,1.10
2022-08-23T13:49:44.119Z,1.58
2022-08-23T13:59:56.149Z,1.40
2022-08-23T14:09:59.266Z,1.42
2022-08-23T14:30:33.127Z,1.20
2022-08-23T14:40:40.411Z,1.17
2022-08-23T14:50:45.395Z,1.50
2022-08-23T15:00:50.214Z,1.42
2022-08-23T15:21:20.483Z,1.10
2022-08-23T15:31:24.014Z,1.45
2022-08-23T15:41:28.214Z,1.42
2022-08-23T15:51:32.774Z,1.25
2022-08-23T16:01:36.193Z,1.20
2022-08-23T16:11:39.038Z,1.50
2022-08-23T16:21:42.092Z,1.17
2022-08-23T16:31:46.463Z,1.30
2022-08-23T16:41:50.148Z,1.60
2022-08-23T16:51:54.686Z,1.30
2022-08-23T17:02:10.815Z,1.17
2022-08-23T17:12:16.823Z,1.08
2022-08-23T17:22:19.906Z,1.10
2022-08-23T17:32:22.571Z,1.15
2022-08-23T17:42:25.283Z,1.48
2022-08-23T17:52:36.883Z,1.20
2022-08-23T18:02:47.837Z,1.30
2022-08-23T18:12:50.565Z,1.20
2022-08-23T18:22:54.516Z,1.55
2022-08-23T18:32:57.948Z,1.08
2022-08-23T18:43:00.846Z,1.40
2022-08-23T18:53:03.770Z,1.55
2022-08-23T19:03:08.081Z,1.35
2022-08-23T19:13:11.664Z,1.33
2022-08-23T19:33:17.753Z,1.50
2022-08-23T19:43:20.621Z,1.50
2022-08-23T19:53:23.292Z,1.83
2022-08-23T20:03:29.654Z,1.70
2022-08-23T20:13:32.931Z,1.70
2022-08-23T20:23:54.448Z,2.20
2022-08-23T20:34:01.533Z,1.70
2022-08-23T20:44:07.445Z,1.55
2022-08-23T20:54:10.903Z,1.77
2022-08-23T21:04:13.459Z,1.70
2022-08-23T21:14:17.722Z,1.70
2022-08-23T21:24:21.057Z,1.70
2022-08-23T21:34:23.669Z,1.75
2022-08-23T21:44:26.099Z,1.70
2022-08-23T21:54:28.613Z,1.75
2022-08-23T22:04:31.197Z,1.77
2022-08-23T22:14:33.848Z,1.85
2022-08-23T22:24:36.199Z,1.90
2022-08-23T22:34:38.434Z,1.92
2022-08-23T22:44:40.678Z,1.60
2022-08-23T22:54:43.344Z,1.77
2022-08-23T23:04:45.867Z,1.62
2022-08-23T23:14:49.039Z,1.70
2022-08-23T23:24:51.281Z,1.70
2022-08-23T23:34:54.545Z,1.67
2022-08-23T23:44:59.485Z,1.60
2022-08-23T23:55:04.127Z,1.90
